sensor_id;sensor_type;location;lat;lon;timestamp;pressure;altitude;pressure_sealevel;temperature;humidity
43701;BME280;58809;47.984;7.964;2023-04-05T00:01:51;97589.03;;;8.11;44.00
43701;BME280;58809;47.984;7.964;2023-04-05T00:04:53;97588.88;;;8.13;43.75
43701;BME280;58809;47.984;7.964;2023-04-05T00:08:07;97584.44;;;8.13;43.85
43701;BME280;58809;47.984;7.964;2023-04-05T00:11:13;97583.97;;;8.18;43.34
43701;BME280;58809;47.984;7.964;2023-04-05T00:14:15;97589.25;;;8.18;43.47
43701;BME280;58809;47.984;7.964;2023-04-05T00:17:16;97585.47;;;8.20;42.99
43701;BME280;58809;47.984;7.964;2023-04-05T00:20:18;97588.31;;;8.27;43.03
43701;BME280;58809;47.984;7.964;2023-04-05T00:23:20;97582.22;;;8.26;42.81
43701;BME280;58809;47.984;7.964;2023-04-05T00:26:23;97579.59;;;8.26;43.07
43701;BME280;58809;47.984;7.964;2023-04-05T00:29:29;97580.94;;;8.04;43.44
43701;BME280;58809;47.984;7.964;2023-04-05T00:32:30;97578.50;;;8.11;43.25
43701;BME280;58809;47.984;7.964;2023-04-05T00:35:32;97577.25;;;8.23;43.50
43701;BME280;58809;47.984;7.964;2023-04-05T00:38:33;97577.47;;;8.30;43.39
43701;BME280;58809;47.984;7.964;2023-04-05T00:41:35;97581.06;;;8.29;43.50
43701;BME280;58809;47.984;7.964;2023-04-05T00:44:37;97574.47;;;8.25;43.19
43701;BME280;58809;47.984;7.964;2023-04-05T00:47:40;97582.88;;;8.28;43.31
43701;BME280;58809;47.984;7.964;2023-04-05T00:50:42;97579.59;;;8.26;43.42
43701;BME280;58809;47.984;7.964;2023-04-05T00:53:44;97585.16;;;8.23;43.58
43701;BME280;58809;47.984;7.964;2023-04-05T00:56:46;97582.53;;;8.23;43.67
43701;BME280;58809;47.984;7.964;2023-04-05T00:59:47;97574.63;;;8.23;44.04
43701;BME280;58809;47.984;7.964;2023-04-05T01:02:54;97571.63;;;8.18;44.05
43701;BME280;58809;47.984;7.964;2023-04-05T01:12:18;97568.31;;;8.16;43.98
43701;BME280;58809;47.984;7.964;2023-04-05T01:15:21;97557.09;;;8.14;44.45
43701;BME280;58809;47.984;7.964;2023-04-05T01:18:22;97547.53;;;8.13;44.26
43701;BME280;58809;47.984;7.964;2023-04-05T01:31:14;97528.31;;;7.95;44.24
43701;BME280;58809;47.984;7.964;2023-04-05T01:37:25;97524.50;;;7.89;44.70
43701;BME280;58809;47.984;7.964;2023-04-05T01:40:29;97518.53;;;7.79;45.15
43701;BME280;58809;47.984;7.964;2023-04-05T01:43:33;97518.63;;;7.69;45.37
43701;BME280;58809;47.984;7.964;2023-04-05T01:46:35;97515.06;;;7.52;45.78
43701;BME280;58809;47.984;7.964;2023-04-05T01:49:37;97514.03;;;7.45;46.18
43701;BME280;58809;47.984;7.964;2023-04-05T01:52:38;97514.25;;;7.51;45.95
43701;BME280;58809;47.984;7.964;2023-04-05T01:55:40;97508.50;;;7.56;45.81
43701;BME280;58809;47.984;7.964;2023-04-05T01:58:42;97512.13;;;7.55;45.91
43701;BME280;58809;47.984;7.964;2023-04-05T02:01:43;97501.75;;;7.54;45.25
43701;BME280;58809;47.984;7.964;2023-04-05T02:04:45;97497.00;;;7.57;44.67
43701;BME280;58809;47.984;7.964;2023-04-05T02:07:46;97493.38;;;7.58;44.35
43701;BME280;58809;47.984;7.964;2023-04-05T02:10:48;97485.91;;;7.71;44.25
43701;BME280;58809;47.984;7.964;2023-04-05T02:13:50;97484.38;;;7.69;44.23
43701;BME280;58809;47.984;7.964;2023-04-05T02:16:52;97485.94;;;7.54;44.37
43701;BME280;58809;47.984;7.964;2023-04-05T02:19:59;97478.50;;;7.49;44.58
43701;BME280;58809;47.984;7.964;2023-04-05T02:23:10;97479.78;;;7.45;44.98
43701;BME280;58809;47.984;7.964;2023-04-05T02:26:12;97481.66;;;7.52;44.52
43701;BME280;58809;47.984;7.964;2023-04-05T02:29:13;97478.72;;;7.56;44.34
43701;BME280;58809;47.984;7.964;2023-04-05T02:32:15;97479.22;;;7.59;44.35
43701;BME280;58809;47.984;7.964;2023-04-05T02:35:17;97470.00;;;7.55;44.29
43701;BME280;58809;47.984;7.964;2023-04-05T02:38:19;97469.19;;;7.55;44.95
43701;BME280;58809;47.984;7.964;2023-04-05T02:41:21;97473.75;;;7.52;44.46
43701;BME280;58809;47.984;7.964;2023-04-05T02:44:24;97475.06;;;7.48;45.08
43701;BME280;58809;47.984;7.964;2023-04-05T02:47:27;97483.72;;;7.41;45.02
43701;BME280;58809;47.984;7.964;2023-04-05T02:50:32;97480.25;;;6.96;45.68
43701;BME280;58809;47.984;7.964;2023-04-05T02:53:33;97476.22;;;7.28;45.50
43701;BME280;58809;47.984;7.964;2023-04-05T02:56:39;97478.56;;;7.31;45.52
43701;BME280;58809;47.984;7.964;2023-04-05T02:59:45;97482.97;;;7.30;45.06
43701;BME280;58809;47.984;7.964;2023-04-05T03:02:47;97484.03;;;7.38;44.80
43701;BME280;58809;47.984;7.964;2023-04-05T03:05:58;97482.06;;;7.40;44.95
43701;BME280;58809;47.984;7.964;2023-04-05T03:09:08;97478.25;;;7.34;45.46
43701;BME280;58809;47.984;7.964;2023-04-05T03:12:10;97480.19;;;7.32;45.49
43701;BME280;58809;47.984;7.964;2023-04-05T03:15:15;97484.28;;;7.26;45.50
43701;BME280;58809;47.984;7.964;2023-04-05T03:18:18;97469.19;;;7.10;45.62
43701;BME280;58809;47.984;7.964;2023-04-05T03:21:20;97469.75;;;6.96;45.86
43701;BME280;58809;47.984;7.964;2023-04-05T03:24:30;97473.38;;;7.03;45.43
43701;BME280;58809;47.984;7.964;2023-04-05T03:27:35;97478.69;;;6.85;45.96
43701;BME280;58809;47.984;7.964;2023-04-05T03:30:43;97477.34;;;6.35;46.78
43701;BME280;58809;47.984;7.964;2023-04-05T03:33:50;97474.22;;;6.50;46.96
43701;BME280;58809;47.984;7.964;2023-04-05T03:36:52;97475.31;;;6.29;47.34
43701;BME280;58809;47.984;7.964;2023-04-05T03:40:03;97466.16;;;6.15;47.70
43701;BME280;58809;47.984;7.964;2023-04-05T03:43:08;97465.50;;;6.04;47.94
43701;BME280;58809;47.984;7.964;2023-04-05T03:46:10;97472.03;;;7.43;45.27
43701;BME280;58809;47.984;7.964;2023-04-05T03:49:12;97466.59;;;7.63;44.97
43701;BME280;58809;47.984;7.964;2023-04-05T03:52:14;97462.13;;;7.63;44.81
43701;BME280;58809;47.984;7.964;2023-04-05T03:55:18;97453.03;;;7.58;45.07
43701;BME280;58809;47.984;7.964;2023-04-05T03:58:21;97454.50;;;7.52;45.20
43701;BME280;58809;47.984;7.964;2023-04-05T04:01:23;97455.84;;;7.56;44.75
43701;BME280;58809;47.984;7.964;2023-04-05T04:04:24;97453.47;;;7.45;45.28
43701;BME280;58809;47.984;7.964;2023-04-05T04:07:27;97463.81;;;7.38;45.29
43701;BME280;58809;47.984;7.964;2023-04-05T04:10:28;97465.44;;;7.13;45.27
43701;BME280;58809;47.984;7.964;2023-04-05T04:13:31;97465.69;;;6.84;46.23
43701;BME280;58809;47.984;7.964;2023-04-05T04:16:37;97461.31;;;6.92;45.91
43701;BME280;58809;47.984;7.964;2023-04-05T04:19:57;97468.75;;;6.97;45.99
43701;BME280;58809;47.984;7.964;2023-04-05T04:23:18;97467.41;;;6.93;46.15
43701;BME280;58809;47.984;7.964;2023-04-05T04:26:34;97466.94;;;6.98;46.24
43701;BME280;58809;47.984;7.964;2023-04-05T04:29:49;97466.34;;;7.04;46.04
43701;BME280;58809;47.984;7.964;2023-04-05T04:33:06;97462.72;;;7.05;45.63
43701;BME280;58809;47.984;7.964;2023-04-05T04:36:39;97463.47;;;6.97;45.53
43701;BME280;58809;47.984;7.964;2023-04-05T04:39:55;97468.22;;;6.93;45.73
43701;BME280;58809;47.984;7.964;2023-04-05T04:43:32;97461.75;;;7.06;45.86
43701;BME280;58809;47.984;7.964;2023-04-05T04:46:54;97464.16;;;6.99;45.46
43701;BME280;58809;47.984;7.964;2023-04-05T04:50:19;97470.41;;;6.98;45.92
43701;BME280;58809;47.984;7.964;2023-04-05T04:53:21;97465.44;;;6.95;45.73
43701;BME280;58809;47.984;7.964;2023-04-05T04:56:24;97465.59;;;6.93;45.96
43701;BME280;58809;47.984;7.964;2023-04-05T04:59:28;97460.84;;;6.97;45.94
43701;BME280;58809;47.984;7.964;2023-04-05T05:02:30;97469.22;;;6.92;45.53
43701;BME280;58809;47.984;7.964;2023-04-05T05:05:31;97472.56;;;7.03;45.89
43701;BME280;58809;47.984;7.964;2023-04-05T05:08:33;97473.75;;;7.08;45.15
43701;BME280;58809;47.984;7.964;2023-04-05T05:11:35;97484.53;;;7.15;45.47
43701;BME280;58809;47.984;7.964;2023-04-05T05:14:39;97484.03;;;7.20;45.22
43701;BME280;58809;47.984;7.964;2023-04-05T05:17:41;97481.59;;;7.18;45.40
43701;BME280;58809;47.984;7.964;2023-04-05T05:20:43;97476.66;;;7.23;45.32
43701;BME280;58809;47.984;7.964;2023-04-05T05:23:44;97482.31;;;7.28;45.30
43701;BME280;58809;47.984;7.964;2023-04-05T05:26:47;97479.16;;;7.25;45.61
43701;BME280;58809;47.984;7.964;2023-04-05T05:29:51;97487.19;;;7.23;45.44
43701;BME280;58809;47.984;7.964;2023-04-05T05:32:52;97486.69;;;7.20;45.62
43701;BME280;58809;47.984;7.964;2023-04-05T05:35:54;97487.69;;;7.19;45.27
43701;BME280;58809;47.984;7.964;2023-04-05T05:38:56;97488.06;;;7.24;45.40
43701;BME280;58809;47.984;7.964;2023-04-05T05:41:57;97495.03;;;7.33;45.54
43701;BME280;58809;47.984;7.964;2023-04-05T05:45:03;97498.22;;;7.45;45.26
43701;BME280;58809;47.984;7.964;2023-04-05T05:48:06;97493.38;;;7.58;44.90
43701;BME280;58809;47.984;7.964;2023-04-05T05:51:07;97492.63;;;7.66;44.86
43701;BME280;58809;47.984;7.964;2023-04-05T05:54:12;97492.19;;;7.79;44.61
43701;BME280;58809;47.984;7.964;2023-04-05T05:57:13;97500.53;;;8.00;44.34
43701;BME280;58809;47.984;7.964;2023-04-05T06:00:15;97494.81;;;8.13;43.94
43701;BME280;58809;47.984;7.964;2023-04-05T06:03:17;97499.50;;;8.27;43.49
43701;BME280;58809;47.984;7.964;2023-04-05T06:06:19;97499.03;;;8.40;43.78
43701;BME280;58809;47.984;7.964;2023-04-05T06:09:22;97495.81;;;8.46;44.08
43701;BME280;58809;47.984;7.964;2023-04-05T06:12:25;97505.25;;;8.57;44.12
43701;BME280;58809;47.984;7.964;2023-04-05T06:15:29;97499.97;;;8.65;43.27
43701;BME280;58809;47.984;7.964;2023-04-05T06:18:31;97501.63;;;8.75;42.92
43701;BME280;58809;47.984;7.964;2023-04-05T06:21:33;97503.66;;;8.89;42.41
43701;BME280;58809;47.984;7.964;2023-04-05T06:24:34;97499.22;;;8.98;42.30
43701;BME280;58809;47.984;7.964;2023-04-05T06:27:36;97497.38;;;8.98;42.12
43701;BME280;58809;47.984;7.964;2023-04-05T06:30:38;97505.28;;;9.06;42.07
43701;BME280;58809;47.984;7.964;2023-04-05T06:33:40;97495.09;;;9.20;41.79
43701;BME280;58809;47.984;7.964;2023-04-05T06:36:42;97503.19;;;9.18;41.11
43701;BME280;58809;47.984;7.964;2023-04-05T06:39:43;97496.91;;;9.28;40.75
43701;BME280;58809;47.984;7.964;2023-04-05T06:42:44;97505.63;;;9.44;40.26
43701;BME280;58809;47.984;7.964;2023-04-05T06:45:50;97501.00;;;9.55;40.76
43701;BME280;58809;47.984;7.964;2023-04-05T06:48:52;97503.31;;;9.66;40.94
43701;BME280;58809;47.984;7.964;2023-04-05T06:51:53;97499.50;;;9.60;41.22
43701;BME280;58809;47.984;7.964;2023-04-05T06:54:55;97500.34;;;9.61;40.99
43701;BME280;58809;47.984;7.964;2023-04-05T06:57:57;97490.75;;;9.68;41.25
43701;BME280;58809;47.984;7.964;2023-04-05T07:00:59;97489.44;;;9.64;41.75
43701;BME280;58809;47.984;7.964;2023-04-05T07:04:01;97491.34;;;9.95;41.60
43701;BME280;58809;47.984;7.964;2023-04-05T07:07:03;97498.50;;;10.26;40.95
43701;BME280;58809;47.984;7.964;2023-04-05T07:10:05;97491.38;;;10.43;39.79
43701;BME280;58809;47.984;7.964;2023-04-05T07:13:06;97496.13;;;10.47;38.97
43701;BME280;58809;47.984;7.964;2023-04-05T07:16:08;97489.44;;;10.59;38.86
43701;BME280;58809;47.984;7.964;2023-04-05T07:19:09;97489.94;;;10.63;38.13
43701;BME280;58809;47.984;7.964;2023-04-05T07:22:11;97490.00;;;10.78;37.49
43701;BME280;58809;47.984;7.964;2023-04-05T07:25:13;97496.59;;;10.82;37.38
43701;BME280;58809;47.984;7.964;2023-04-05T07:28:14;97494.16;;;10.72;37.20
43701;BME280;58809;47.984;7.964;2023-04-05T07:31:16;97494.53;;;10.92;36.83
43701;BME280;58809;47.984;7.964;2023-04-05T07:34:18;97494.38;;;10.94;36.60
43701;BME280;58809;47.984;7.964;2023-04-05T07:37:25;97502.19;;;10.87;36.11
43701;BME280;58809;47.984;7.964;2023-04-05T07:40:27;97502.78;;;10.97;35.99
43701;BME280;58809;47.984;7.964;2023-04-05T07:43:29;97496.78;;;11.04;36.11
43701;BME280;58809;47.984;7.964;2023-04-05T07:46:30;97494.84;;;10.97;35.75
43701;BME280;58809;47.984;7.964;2023-04-05T07:49:32;97500.06;;;11.06;36.15
43701;BME280;58809;47.984;7.964;2023-04-05T07:52:34;97500.44;;;11.03;35.65
43701;BME280;58809;47.984;7.964;2023-04-05T07:55:38;97506.00;;;11.08;35.37
43701;BME280;58809;47.984;7.964;2023-04-05T07:58:40;97508.09;;;11.35;35.21
43701;BME280;58809;47.984;7.964;2023-04-05T08:01:42;97501.81;;;11.36;34.86
43701;BME280;58809;47.984;7.964;2023-04-05T08:04:44;97502.47;;;11.39;34.89
43701;BME280;58809;47.984;7.964;2023-04-05T08:07:46;97498.59;;;11.26;34.60
43701;BME280;58809;47.984;7.964;2023-04-05T08:10:49;97493.56;;;11.31;34.31
43701;BME280;58809;47.984;7.964;2023-04-05T08:13:50;97497.72;;;11.34;33.87
43701;BME280;58809;47.984;7.964;2023-04-05T08:16:54;97499.47;;;11.42;34.19
43701;BME280;58809;47.984;7.964;2023-04-05T08:19:55;97498.03;;;11.54;33.89
43701;BME280;58809;47.984;7.964;2023-04-05T08:22:57;97487.31;;;11.47;33.98
43701;BME280;58809;47.984;7.964;2023-04-05T08:25:58;97487.72;;;11.21;34.41
43701;BME280;58809;47.984;7.964;2023-04-05T08:29:00;97485.19;;;11.43;34.26
43701;BME280;58809;47.984;7.964;2023-04-05T08:32:01;97479.09;;;11.42;34.65
43701;BME280;58809;47.984;7.964;2023-04-05T08:35:03;97486.28;;;11.33;34.81
43701;BME280;58809;47.984;7.964;2023-04-05T08:38:05;97485.53;;;11.25;33.92
43701;BME280;58809;47.984;7.964;2023-04-05T08:41:13;97484.56;;;11.41;34.09
43701;BME280;58809;47.984;7.964;2023-04-05T08:44:17;97484.72;;;11.39;34.38
43701;BME280;58809;47.984;7.964;2023-04-05T08:47:22;97470.78;;;11.45;34.42
43701;BME280;58809;47.984;7.964;2023-04-05T08:50:24;97486.03;;;11.43;34.57
43701;BME280;58809;47.984;7.964;2023-04-05T08:53:27;97483.56;;;11.42;34.27
43701;BME280;58809;47.984;7.964;2023-04-05T08:56:33;97477.44;;;11.41;34.21
43701;BME280;58809;47.984;7.964;2023-04-05T08:59:37;97480.59;;;11.60;33.96
43701;BME280;58809;47.984;7.964;2023-04-05T09:02:42;97487.44;;;11.54;34.21
43701;BME280;58809;47.984;7.964;2023-04-05T09:05:47;97487.31;;;11.47;34.04
43701;BME280;58809;47.984;7.964;2023-04-05T09:08:50;97483.84;;;11.47;34.77
43701;BME280;58809;47.984;7.964;2023-04-05T09:11:52;97479.00;;;12.18;33.17
43701;BME280;58809;47.984;7.964;2023-04-05T09:14:54;97481.91;;;11.93;32.67
43701;BME280;58809;47.984;7.964;2023-04-05T09:17:56;97481.16;;;10.63;34.61
43701;BME280;58809;47.984;7.964;2023-04-05T09:21:02;97480.31;;;10.62;35.02
43701;BME280;58809;47.984;7.964;2023-04-05T09:24:05;97477.31;;;10.73;33.95
43701;BME280;58809;47.984;7.964;2023-04-05T09:27:17;97472.81;;;11.73;33.11
43701;BME280;58809;47.984;7.964;2023-04-05T09:30:25;97475.84;;;12.44;32.01
43701;BME280;58809;47.984;7.964;2023-04-05T09:33:28;97476.13;;;12.49;32.21
43701;BME280;58809;47.984;7.964;2023-04-05T09:36:32;97475.97;;;12.58;32.75
43701;BME280;58809;47.984;7.964;2023-04-05T09:39:33;97475.38;;;12.77;32.23
43701;BME280;58809;47.984;7.964;2023-04-05T09:42:53;97465.81;;;12.61;32.49
43701;BME280;58809;47.984;7.964;2023-04-05T09:45:54;97472.81;;;12.47;32.92
43701;BME280;58809;47.984;7.964;2023-04-05T09:48:56;97478.63;;;12.58;33.26
43701;BME280;58809;47.984;7.964;2023-04-05T09:51:58;97476.03;;;12.79;33.20
43701;BME280;58809;47.984;7.964;2023-04-05T09:55:03;97461.59;;;12.67;33.17
43701;BME280;58809;47.984;7.964;2023-04-05T09:58:10;97466.41;;;13.00;33.58
43701;BME280;58809;47.984;7.964;2023-04-05T10:01:13;97462.44;;;13.10;33.08
43701;BME280;58809;47.984;7.964;2023-04-05T10:04:23;97458.59;;;12.92;33.69
43701;BME280;58809;47.984;7.964;2023-04-05T10:07:25;97463.38;;;14.16;32.62
43701;BME280;58809;47.984;7.964;2023-04-05T10:10:27;97459.16;;;13.86;32.85
43701;BME280;58809;47.984;7.964;2023-04-05T10:13:29;97463.19;;;13.76;32.97
43701;BME280;58809;47.984;7.964;2023-04-05T10:16:32;97472.66;;;13.85;33.17
43701;BME280;58809;47.984;7.964;2023-04-05T10:26:33;97468.38;;;13.91;33.17
43701;BME280;58809;47.984;7.964;2023-04-05T10:30:28;97465.41;;;13.72;33.44
43701;BME280;58809;47.984;7.964;2023-04-05T10:33:34;97471.63;;;13.86;33.65
43701;BME280;58809;47.984;7.964;2023-04-05T10:36:56;97466.09;;;13.88;33.25
43701;BME280;58809;47.984;7.964;2023-04-05T10:40:02;97467.47;;;14.12;33.34
43701;BME280;58809;47.984;7.964;2023-04-05T10:43:06;97460.97;;;13.86;34.15
43701;BME280;58809;47.984;7.964;2023-04-05T10:46:20;97463.09;;;13.97;33.75
43701;BME280;58809;47.984;7.964;2023-04-05T10:52:31;97465.75;;;13.97;33.57
43701;BME280;58809;47.984;7.964;2023-04-05T10:55:34;97460.34;;;14.19;33.73
43701;BME280;58809;47.984;7.964;2023-04-05T10:58:37;97457.91;;;14.24;33.18
43701;BME280;58809;47.984;7.964;2023-04-05T11:01:40;97455.91;;;14.33;33.22
43701;BME280;58809;47.984;7.964;2023-04-05T11:04:42;97457.34;;;14.35;33.51
43701;BME280;58809;47.984;7.964;2023-04-05T11:07:45;97456.47;;;14.21;33.13
43701;BME280;58809;47.984;7.964;2023-04-05T11:10:51;97449.50;;;14.20;33.25
43701;BME280;58809;47.984;7.964;2023-04-05T11:13:54;97451.22;;;14.41;32.95
43701;BME280;58809;47.984;7.964;2023-04-05T11:16:57;97444.47;;;14.52;32.75
43701;BME280;58809;47.984;7.964;2023-04-05T11:20:04;97443.59;;;14.93;32.12
43701;BME280;58809;47.984;7.964;2023-04-05T11:23:07;97441.94;;;15.66;31.17
43701;BME280;58809;47.984;7.964;2023-04-05T11:26:08;97446.28;;;15.53;31.79
43701;BME280;58809;47.984;7.964;2023-04-05T11:29:10;97444.63;;;15.26;31.77
43701;BME280;58809;47.984;7.964;2023-04-05T11:32:12;97440.75;;;15.28;31.87
43701;BME280;58809;47.984;7.964;2023-04-05T11:35:15;97433.34;;;15.70;32.29
43701;BME280;58809;47.984;7.964;2023-04-05T11:38:23;97431.69;;;15.69;31.92
43701;BME280;58809;47.984;7.964;2023-04-05T11:41:32;97432.28;;;15.71;31.72
43701;BME280;58809;47.984;7.964;2023-04-05T11:44:45;97429.84;;;15.70;31.15
43701;BME280;58809;47.984;7.964;2023-04-05T11:47:47;97422.09;;;15.48;31.39
43701;BME280;58809;47.984;7.964;2023-04-05T11:50:49;97416.31;;;15.58;31.64
43701;BME280;58809;47.984;7.964;2023-04-05T11:53:54;97424.53;;;15.43;32.36
43701;BME280;58809;47.984;7.964;2023-04-05T11:57:02;97426.19;;;15.31;32.46
43701;BME280;58809;47.984;7.964;2023-04-05T12:00:06;97411.00;;;15.38;32.60
43701;BME280;58809;47.984;7.964;2023-04-05T12:03:15;97420.84;;;13.81;34.35
43701;BME280;58809;47.984;7.964;2023-04-05T12:06:21;97403.38;;;13.37;35.63
43701;BME280;58809;47.984;7.964;2023-04-05T12:09:23;97410.56;;;14.68;34.05
43701;BME280;58809;47.984;7.964;2023-04-05T12:12:34;97407.66;;;13.59;35.33
43701;BME280;58809;47.984;7.964;2023-04-05T12:15:38;97405.13;;;13.51;35.79
43701;BME280;58809;47.984;7.964;2023-04-05T12:18:41;97399.66;;;13.59;35.98
43701;BME280;58809;47.984;7.964;2023-04-05T12:21:42;97393.56;;;13.65;35.66
43701;BME280;58809;47.984;7.964;2023-04-05T12:24:44;97386.72;;;13.91;35.95
43701;BME280;58809;47.984;7.964;2023-04-05T12:27:46;97388.06;;;14.09;35.53
43701;BME280;58809;47.984;7.964;2023-04-05T12:30:52;97383.84;;;13.86;34.66
43701;BME280;58809;47.984;7.964;2023-04-05T12:33:58;97385.31;;;13.95;34.62
43701;BME280;58809;47.984;7.964;2023-04-05T12:36:59;97383.69;;;13.94;35.18
43701;BME280;58809;47.984;7.964;2023-04-05T12:40:04;97377.78;;;14.05;35.18
43701;BME280;58809;47.984;7.964;2023-04-05T12:43:06;97388.13;;;14.35;35.24
43701;BME280;58809;47.984;7.964;2023-04-05T12:46:16;97388.50;;;14.25;34.46
43701;BME280;58809;47.984;7.964;2023-04-05T12:49:17;97385.38;;;14.09;34.25
43701;BME280;58809;47.984;7.964;2023-04-05T12:52:19;97384.16;;;14.11;33.92
43701;BME280;58809;47.984;7.964;2023-04-05T12:55:25;97378.41;;;14.08;34.66
43701;BME280;58809;47.984;7.964;2023-04-05T12:58:36;97377.25;;;14.30;34.52
43701;BME280;58809;47.984;7.964;2023-04-05T13:01:38;97363.16;;;14.36;34.42
43701;BME280;58809;47.984;7.964;2023-04-05T13:04:39;97367.69;;;14.56;33.76
43701;BME280;58809;47.984;7.964;2023-04-05T13:07:41;97369.56;;;14.69;33.69
43701;BME280;58809;47.984;7.964;2023-04-05T13:10:44;97369.41;;;16.09;31.77
43701;BME280;58809;47.984;7.964;2023-04-05T13:13:46;97354.66;;;16.00;32.14
43701;BME280;58809;47.984;7.964;2023-04-05T13:16:47;97361.63;;;16.01;32.17
43701;BME280;58809;47.984;7.964;2023-04-05T13:19:49;97381.59;;;15.71;32.15
43701;BME280;58809;47.984;7.964;2023-04-05T13:22:50;97357.22;;;15.74;32.34
43701;BME280;58809;47.984;7.964;2023-04-05T13:25:52;97354.75;;;16.25;31.61
43701;BME280;58809;47.984;7.964;2023-04-05T13:28:53;97355.69;;;16.37;31.49
43701;BME280;58809;47.984;7.964;2023-04-05T13:31:55;97349.84;;;16.22;31.29
43701;BME280;58809;47.984;7.964;2023-04-05T13:34:57;97355.84;;;16.49;31.24
43701;BME280;58809;47.984;7.964;2023-04-05T13:37:58;97366.94;;;16.52;31.25
43701;BME280;58809;47.984;7.964;2023-04-05T13:41:05;97364.38;;;16.32;31.46
43701;BME280;58809;47.984;7.964;2023-04-05T13:44:06;97362.13;;;16.29;31.28
43701;BME280;58809;47.984;7.964;2023-04-05T13:47:08;97347.25;;;16.47;31.42
43701;BME280;58809;47.984;7.964;2023-04-05T13:50:09;97354.63;;;16.83;30.82
43701;BME280;58809;47.984;7.964;2023-04-05T13:53:11;97360.63;;;16.40;31.35
43701;BME280;58809;47.984;7.964;2023-04-05T13:56:12;97349.13;;;16.40;31.69
43701;BME280;58809;47.984;7.964;2023-04-05T13:59:14;97342.72;;;16.47;31.79
43701;BME280;58809;47.984;7.964;2023-04-05T14:02:17;97347.16;;;16.28;31.71
43701;BME280;58809;47.984;7.964;2023-04-05T14:05:21;97354.56;;;16.90;31.80
43701;BME280;58809;47.984;7.964;2023-04-05T14:08:22;97348.59;;;16.95;30.74
43701;BME280;58809;47.984;7.964;2023-04-05T14:11:24;97345.56;;;17.09;30.55
43701;BME280;58809;47.984;7.964;2023-04-05T14:14:26;97336.75;;;17.09;31.27
43701;BME280;58809;47.984;7.964;2023-04-05T14:17:28;97338.22;;;16.73;30.99
43701;BME280;58809;47.984;7.964;2023-04-05T14:20:29;97345.03;;;16.69;31.00
43701;BME280;58809;47.984;7.964;2023-04-05T14:23:31;97346.06;;;16.68;31.06
43701;BME280;58809;47.984;7.964;2023-04-05T14:26:33;97346.72;;;16.95;30.87
43701;BME280;58809;47.984;7.964;2023-04-05T14:29:34;97335.16;;;17.63;30.76
43701;BME280;58809;47.984;7.964;2023-04-05T14:32:36;97335.09;;;17.51;30.60
43701;BME280;58809;47.984;7.964;2023-04-05T14:35:38;97330.44;;;17.22;30.92
43701;BME280;58809;47.984;7.964;2023-04-05T14:38:39;97327.81;;;17.40;30.89
43701;BME280;58809;47.984;7.964;2023-04-05T14:41:41;97331.97;;;18.10;30.06
43701;BME280;58809;47.984;7.964;2023-04-05T14:44:44;97322.47;;;18.68;28.90
43701;BME280;58809;47.984;7.964;2023-04-05T14:47:46;97316.25;;;19.45;27.79
43701;BME280;58809;47.984;7.964;2023-04-05T14:50:47;97318.00;;;19.75;27.37
43701;BME280;58809;47.984;7.964;2023-04-05T14:53:50;97311.31;;;19.89;27.70
43701;BME280;58809;47.984;7.964;2023-04-05T14:56:51;97316.56;;;18.78;28.87
43701;BME280;58809;47.984;7.964;2023-04-05T14:59:53;97318.25;;;17.88;29.36
43701;BME280;58809;47.984;7.964;2023-04-05T15:02:54;97316.34;;;17.51;29.71
43701;BME280;58809;47.984;7.964;2023-04-05T15:05:57;97309.94;;;17.52;30.30
43701;BME280;58809;47.984;7.964;2023-04-05T15:08:58;97313.38;;;17.41;30.38
43701;BME280;58809;47.984;7.964;2023-04-05T15:12:00;97313.03;;;17.12;30.41
43701;BME280;58809;47.984;7.964;2023-04-05T15:15:02;97306.91;;;17.30;30.32
43701;BME280;58809;47.984;7.964;2023-04-05T15:18:04;97307.22;;;17.41;30.15
43701;BME280;58809;47.984;7.964;2023-04-05T15:21:08;97310.69;;;17.23;30.19
43701;BME280;58809;47.984;7.964;2023-04-05T15:24:10;97304.97;;;16.69;30.62
43701;BME280;58809;47.984;7.964;2023-04-05T15:27:11;97301.53;;;16.87;30.83
43701;BME280;58809;47.984;7.964;2023-04-05T15:30:13;97300.31;;;17.51;29.97
43701;BME280;58809;47.984;7.964;2023-04-05T15:33:16;97294.19;;;17.81;29.64
43701;BME280;58809;47.984;7.964;2023-04-05T15:36:17;97297.53;;;18.56;29.00
43701;BME280;58809;47.984;7.964;2023-04-05T15:39:19;97301.75;;;20.85;27.43
43701;BME280;58809;47.984;7.964;2023-04-05T15:42:21;97304.34;;;23.38;24.33
43701;BME280;58809;47.984;7.964;2023-04-05T15:45:23;97308.34;;;24.97;23.32
43701;BME280;58809;47.984;7.964;2023-04-05T15:48:24;97315.44;;;26.05;22.53
43701;BME280;58809;47.984;7.964;2023-04-05T15:51:26;97321.34;;;29.22;20.42
43701;BME280;58809;47.984;7.964;2023-04-05T15:54:27;97324.16;;;29.17;20.39
43701;BME280;58809;47.984;7.964;2023-04-05T15:57:29;97322.22;;;30.06;19.91
43701;BME280;58809;47.984;7.964;2023-04-05T16:00:31;97314.66;;;30.53;19.69
43701;BME280;58809;47.984;7.964;2023-04-05T16:03:33;97309.88;;;31.98;18.70
43701;BME280;58809;47.984;7.964;2023-04-05T16:06:35;97309.69;;;31.85;18.32
43701;BME280;58809;47.984;7.964;2023-04-05T16:09:37;97311.78;;;31.80;18.39
43701;BME280;58809;47.984;7.964;2023-04-05T16:12:38;97306.13;;;32.34;18.31
43701;BME280;58809;47.984;7.964;2023-04-05T16:15:40;97313.66;;;32.19;17.71
43701;BME280;58809;47.984;7.964;2023-04-05T16:18:41;97308.34;;;32.23;17.75
43701;BME280;58809;47.984;7.964;2023-04-05T16:21:43;97304.34;;;32.20;17.57
43701;BME280;58809;47.984;7.964;2023-04-05T16:24:44;97301.31;;;32.57;17.63
43701;BME280;58809;47.984;7.964;2023-04-05T16:27:46;97298.72;;;32.43;17.12
43701;BME280;58809;47.984;7.964;2023-04-05T16:30:48;97300.47;;;32.56;17.02
43701;BME280;58809;47.984;7.964;2023-04-05T16:33:51;97306.47;;;32.85;16.61
43701;BME280;58809;47.984;7.964;2023-04-05T16:36:54;97301.00;;;32.85;16.51
43701;BME280;58809;47.984;7.964;2023-04-05T16:39:55;97290.19;;;32.79;16.58
43701;BME280;58809;47.984;7.964;2023-04-05T16:42:57;97301.31;;;32.74;16.64
43701;BME280;58809;47.984;7.964;2023-04-05T16:45:58;97297.75;;;32.91;16.67
43701;BME280;58809;47.984;7.964;2023-04-05T16:49:00;97293.88;;;32.40;16.86